Wood Dale, Illinois
Current Conditions -  °F | °C
As of 8:51 PM on Wednesday 22 Oct 2014 (Local Time) from KORD Reporting Station
Clear Clear  
Wind Chill: 39°   Ceiling: Unl
Heat Index: 42°   Visibility: 10mi
Dew Point: 36°   Wind: 5mph
Humidity: 79%   Direction: 120°ESE
Pressure: 30.26"   Gusts: NA
Location:  41.97°N, 87.98°W
Report Text: KORD 230151Z 12004KT 10SM CLR 06/02 A3026 RMK AO2 SLP251 T00560022
Loading
Personal Weather Stations






























Interactive Weather Map
Tropical Storm Tracking
New forecast layout! Learn more

10-Day Weather Forecast

Advertisements
Track Severe Weather on mobile